Time;durP1;ratioP1;P1;durP2;ratioP2;P2;SDS_P1;SDS_P2;PMS_P1;PMS_P2;Temp;Humidity;BMP_temperature;BMP_pressure;BME280_temperature;BME280_humidity;BME280_pressure;Samples;Min_cycle;Max_cycle;Signal;HPM_P1;HPM_P2
2022/11/07 00:01:47;;;;;;;0.30;0.30;;;8.30;99.90;;;;;;4953884;28;20207;-92
2022/11/07 00:04:13;;;;;;;0.30;0.30;;;8.30;99.90;;;;;;4954500;28;20191;-94
2022/11/07 00:06:39;;;;;;;0.23;0.23;;;8.30;99.90;;;;;;4956683;29;20817;-95
2022/11/07 00:09:05;;;;;;;0.30;0.30;;;8.30;99.90;;;;;;4955915;28;20290;-94
2022/11/07 00:11:30;;;;;;;0.30;0.30;;;8.30;99.90;;;;;;4963712;28;20288;-95
2022/11/07 00:13:56;;;;;;;0.20;0.20;;;8.30;99.90;;;;;;4976579;28;20179;-93
2022/11/07 00:16:21;;;;;;;0.20;0.20;;;8.40;99.90;;;;;;4951914;28;20179;-95
2022/11/07 00:18:47;;;;;;;0.30;0.30;;;8.40;99.90;;;;;;4956457;29;20191;-96
2022/11/07 00:21:12;;;;;;;0.30;0.30;;;8.40;99.90;;;;;;4951732;28;21057;-94
2022/11/07 00:23:39;;;;;;;0.30;0.30;;;8.40;99.90;;;;;;4955306;29;20198;-95
2022/11/07 00:26:08;;;;;;;0.30;0.30;;;8.50;99.90;;;;;;4946043;29;20647;-94
2022/11/07 00:28:34;;;;;;;0.30;0.30;;;8.50;99.90;;;;;;4946782;29;20489;-90
2022/11/07 00:31:00;;;;;;;0.30;0.30;;;8.50;99.90;;;;;;4949986;28;20467;-93
2022/11/07 00:33:25;;;;;;;0.27;0.27;;;8.60;99.90;;;;;;4954352;28;20454;-94
2022/11/07 00:35:51;;;;;;;0.20;0.20;;;8.60;99.90;;;;;;4957129;28;20225;-94
2022/11/07 00:38:16;;;;;;;0.30;0.30;;;8.60;99.90;;;;;;4953333;29;20265;-93
2022/11/07 00:40:42;;;;;;;0.30;0.30;;;8.70;99.90;;;;;;4979901;28;20187;-94
2022/11/07 00:43:08;;;;;;;0.30;0.30;;;8.70;99.90;;;;;;4957991;28;20954;-90
2022/11/07 00:45:34;;;;;;;0.20;0.20;;;8.70;99.90;;;;;;4954428;28;20194;-95
2022/11/07 00:48:00;;;;;;;0.30;0.30;;;8.70;99.90;;;;;;4958101;28;20646;-93
2022/11/07 00:50:25;;;;;;;0.30;0.30;;;8.80;99.90;;;;;;4954243;28;20435;-95
2022/11/07 00:52:51;;;;;;;0.30;0.30;;;8.80;99.90;;;;;;4945584;28;20184;-92
2022/11/07 00:55:16;;;;;;;0.30;0.30;;;8.80;99.90;;;;;;4952642;28;20335;-94
2022/11/07 00:57:42;;;;;;;0.20;0.20;;;8.90;99.90;;;;;;4968801;28;20222;-93
2022/11/07 01:00:09;;;;;;;0.30;0.30;;;8.90;99.90;;;;;;4970358;28;20191;-93
2022/11/07 01:02:34;;;;;;;0.20;0.20;;;8.90;99.90;;;;;;4978377;28;20216;-95
2022/11/07 01:05:09;;;;;;;0.20;0.20;;;8.90;99.90;;;;;;4953912;28;20557;-92
2022/11/07 01:07:35;;;;;;;0.30;0.30;;;9.00;99.90;;;;;;4957173;28;20190;-91
2022/11/07 01:10:01;;;;;;;0.20;0.20;;;9.00;99.90;;;;;;4957860;28;20993;-93
2022/11/07 01:12:27;;;;;;;0.20;0.20;;;9.00;99.90;;;;;;4959833;28;20195;-95
2022/11/07 01:14:52;;;;;;;0.20;0.20;;;9.00;99.90;;;;;;4948471;29;20247;-93
2022/11/07 01:17:18;;;;;;;0.20;0.20;;;9.00;99.90;;;;;;4952298;28;20632;-92
2022/11/07 01:19:43;;;;;;;0.20;0.20;;;9.00;99.90;;;;;;4955420;28;20343;-95
2022/11/07 01:22:12;;;;;;;0.20;0.20;;;9.10;99.90;;;;;;4938247;28;20195;-91
2022/11/07 01:24:38;;;;;;;0.20;0.20;;;9.00;99.90;;;;;;4958982;28;20567;-91
2022/11/07 01:27:03;;;;;;;0.30;0.30;;;9.10;99.90;;;;;;4953350;28;20462;-92
2022/11/07 01:29:29;;;;;;;0.20;0.20;;;9.10;99.90;;;;;;4941834;28;20220;-95
2022/11/07 01:31:54;;;;;;;0.20;0.20;;;9.10;99.90;;;;;;4947719;28;20252;-94
2022/11/07 01:34:20;;;;;;;0.20;0.20;;;9.10;99.90;;;;;;4942879;29;20179;-94
2022/11/07 01:36:46;;;;;;;0.20;0.20;;;9.10;99.90;;;;;;5005327;28;20301;-95
2022/11/07 01:39:11;;;;;;;0.20;0.20;;;9.10;99.90;;;;;;4974948;28;20274;-95
2022/11/07 01:41:37;;;;;;;0.27;0.27;;;9.10;99.90;;;;;;4945552;28;20201;-92
2022/11/07 01:44:05;;;;;;;0.20;0.20;;;9.20;99.90;;;;;;4944296;28;20199;-90
2022/11/07 01:46:43;;;;;;;0.30;0.30;;;9.20;99.90;;;;;;4950010;28;20503;-93
2022/11/07 01:49:16;;;;;;;0.30;0.30;;;9.20;99.90;;;;;;4952079;28;20502;-94
2022/11/07 01:52:10;;;;;;;0.20;0.20;;;9.20;99.90;;;;;;4979690;28;20442;-93
2022/11/07 01:54:47;;;;;;;0.30;0.30;;;9.30;99.90;;;;;;4955413;28;20447;-95
2022/11/07 01:57:40;;;;;;;0.20;0.20;;;9.30;99.90;;;;;;4960917;28;20529;-94
2022/11/07 02:00:10;;;;;;;0.20;0.20;;;9.30;99.90;;;;;;4988165;28;20466;-89
2022/11/07 02:02:36;;;;;;;0.20;0.20;;;9.30;99.90;;;;;;4949967;28;21440;-90
2022/11/07 02:05:03;;;;;;;0.20;0.20;;;9.30;99.90;;;;;;4944795;28;20485;-92
2022/11/07 02:07:29;;;;;;;0.20;0.20;;;9.30;99.90;;;;;;4952213;29;20446;-96
2022/11/07 02:09:55;;;;;;;0.20;0.20;;;9.30;99.90;;;;;;4953093;28;20461;-94
2022/11/07 02:12:23;;;;;;;0.20;0.20;;;9.40;99.90;;;;;;4949989;28;20197;-94
2022/11/07 02:14:49;;;;;;;0.20;0.20;;;9.40;99.90;;;;;;4946757;28;20183;-94
2022/11/07 02:17:15;;;;;;;0.20;0.20;;;9.40;99.90;;;;;;4946060;28;20484;-94
2022/11/07 02:19:55;;;;;;;0.20;0.20;;;9.40;99.90;;;;;;4951195;29;20454;-95
2022/11/07 02:22:33;;;;;;;0.20;0.20;;;9.50;99.90;;;;;;4943976;28;20453;-93
2022/11/07 02:25:01;;;;;;;0.20;0.20;;;9.50;99.90;;;;;;4951364;28;20499;-94
2022/11/07 02:27:30;;;;;;;0.30;0.30;;;9.50;99.90;;;;;;4947219;28;20469;-94
2022/11/07 02:30:02;;;;;;;0.20;0.20;;;9.50;99.90;;;;;;4939541;28;20439;-91
2022/11/07 02:32:28;;;;;;;0.23;0.23;;;9.50;99.90;;;;;;4948818;29;20504;-94
2022/11/07 02:34:59;;;;;;;0.20;0.20;;;9.50;99.90;;;;;;4950874;28;20850;-93
2022/11/07 02:37:30;;;;;;;0.20;0.20;;;9.50;99.90;;;;;;4951418;28;20239;-90
2022/11/07 02:39:57;;;;;;;0.20;0.20;;;9.60;99.90;;;;;;4950564;28;20453;-93
2022/11/07 02:42:23;;;;;;;0.20;0.20;;;9.60;99.90;;;;;;4954519;28;21035;-94
2022/11/07 02:44:52;;;;;;;0.20;0.20;;;9.50;99.90;;;;;;4943224;28;20627;-93
2022/11/07 02:47:17;;;;;;;0.20;0.20;;;9.50;99.90;;;;;;4952737;28;20194;-92
2022/11/07 02:49:43;;;;;;;0.20;0.20;;;9.50;99.90;;;;;;4952106;28;20446;-90
2022/11/07 02:52:08;;;;;;;0.20;0.20;;;9.50;99.90;;;;;;4965169;28;20195;-94
2022/11/07 02:54:34;;;;;;;0.20;0.20;;;9.60;99.90;;;;;;4940440;28;20204;-94
2022/11/07 02:56:59;;;;;;;0.20;0.20;;;9.60;99.90;;;;;;4948487;28;20309;-92
2022/11/07 02:59:25;;;;;;;0.20;0.20;;;9.60;99.90;;;;;;4952927;28;20234;-94
2022/11/07 03:01:50;;;;;;;0.20;0.20;;;9.60;99.90;;;;;;4953338;28;20199;-91
2022/11/07 03:04:16;;;;;;;0.20;0.20;;;9.60;99.90;;;;;;4953386;28;20191;-95
2022/11/07 03:06:41;;;;;;;0.20;0.20;;;9.60;99.90;;;;;;4957751;28;20454;-95
2022/11/07 03:09:07;;;;;;;0.20;0.20;;;9.60;99.90;;;;;;4942797;28;20199;-94
2022/11/07 03:11:32;;;;;;;0.20;0.20;;;9.60;99.90;;;;;;4953454;28;20273;-93
2022/11/07 03:13:58;;;;;;;0.20;0.20;;;9.70;99.90;;;;;;4953670;28;20237;-92
2022/11/07 03:16:23;;;;;;;0.20;0.20;;;9.70;99.90;;;;;;4950368;28;20229;-94
2022/11/07 03:18:49;;;;;;;0.20;0.20;;;9.70;99.90;;;;;;4952425;28;20581;-94
2022/11/07 03:21:14;;;;;;;0.20;0.20;;;9.70;99.90;;;;;;4946804;29;20196;-94
2022/11/07 03:23:40;;;;;;;0.20;0.20;;;9.70;99.90;;;;;;4977832;28;20178;-94
2022/11/07 03:26:05;;;;;;;0.20;0.20;;;9.70;99.90;;;;;;4951648;29;20187;-93
2022/11/07 03:28:32;;;;;;;0.20;0.20;;;9.80;99.90;;;;;;4947907;28;20186;-94
2022/11/07 03:31:02;;;;;;;0.30;0.30;;;9.80;99.90;;;;;;4951675;28;20714;-92
2022/11/07 03:33:28;;;;;;;0.20;0.20;;;9.80;99.90;;;;;;4957543;28;20477;-94
2022/11/07 03:35:54;;;;;;;0.20;0.20;;;9.80;99.90;;;;;;4952743;29;20624;-92
2022/11/07 03:38:19;;;;;;;0.20;0.20;;;9.80;99.90;;;;;;4955538;28;20586;-94
2022/11/07 03:40:45;;;;;;;0.20;0.20;;;9.80;99.90;;;;;;4952292;29;20603;-91
2022/11/07 03:43:11;;;;;;;0.20;0.20;;;9.80;99.90;;;;;;4948468;28;20245;-93
2022/11/07 03:45:36;;;;;;;0.20;0.20;;;9.80;99.90;;;;;;4944595;28;20541;-93
2022/11/07 03:48:02;;;;;;;0.20;0.20;;;9.80;99.90;;;;;;4944279;28;20194;-95
2022/11/07 03:50:27;;;;;;;0.20;0.20;;;9.90;99.90;;;;;;4950274;28;20989;-93
2022/11/07 03:52:53;;;;;;;0.20;0.20;;;9.90;99.90;;;;;;4938844;28;20195;-92
2022/11/07 03:55:19;;;;;;;0.20;0.20;;;9.80;99.90;;;;;;4959646;28;20194;-93
2022/11/07 03:57:45;;;;;;;0.30;0.30;;;9.80;99.90;;;;;;4972043;28;20218;-93
2022/11/07 04:00:12;;;;;;;0.20;0.20;;;9.80;99.90;;;;;;4984431;28;20195;-93
2022/11/07 04:02:38;;;;;;;0.20;0.20;;;9.80;99.90;;;;;;4952079;28;20582;-86
2022/11/07 04:05:04;;;;;;;0.20;0.20;;;9.90;99.90;;;;;;4952101;29;21002;-92
2022/11/07 04:07:29;;;;;;;0.20;0.20;;;9.90;99.90;;;;;;4972771;28;20183;-92
2022/11/07 04:09:55;;;;;;;0.20;0.20;;;10.00;99.90;;;;;;4952631;28;21044;-92
2022/11/07 04:17:48;;;;;;;0.20;0.20;;;10.00;99.90;;;;;;4943383;28;20536;-94
2022/11/07 04:20:14;;;;;;;0.20;0.20;;;10.00;99.90;;;;;;4950495;29;20550;-93
2022/11/07 04:22:39;;;;;;;0.20;0.20;;;10.00;99.90;;;;;;4955725;28;20494;-88
2022/11/07 04:25:06;;;;;;;0.20;0.20;;;10.10;99.90;;;;;;4953410;28;20229;-94
2022/11/07 04:27:43;;;;;;;0.20;0.20;;;10.10;99.90;;;;;;4948993;28;20615;-92
2022/11/07 04:30:22;;;;;;;0.20;0.20;;;10.10;99.90;;;;;;4937714;28;20936;-93
2022/11/07 04:32:53;;;;;;;0.20;0.20;;;10.10;99.90;;;;;;4952080;29;20457;-91
2022/11/07 04:35:20;;;;;;;0.20;0.20;;;10.10;99.90;;;;;;4970385;28;20441;-92
2022/11/07 04:37:46;;;;;;;0.20;0.20;;;10.20;99.90;;;;;;4965416;28;20500;-93
2022/11/07 04:40:12;;;;;;;0.20;0.20;;;10.20;99.90;;;;;;4976184;28;20444;-93
2022/11/07 04:42:37;;;;;;;0.20;0.20;;;10.20;99.90;;;;;;4949870;28;20498;-94
2022/11/07 04:45:04;;;;;;;0.20;0.20;;;10.20;99.90;;;;;;4946864;28;20192;-91
2022/11/07 04:47:30;;;;;;;0.20;0.20;;;10.20;99.90;;;;;;4944065;29;20195;-91
2022/11/07 04:49:55;;;;;;;0.20;0.20;;;10.20;99.90;;;;;;4946281;28;20435;-95
2022/11/07 04:52:21;;;;;;;0.20;0.20;;;10.20;99.90;;;;;;4950165;28;20277;-93
2022/11/07 04:54:46;;;;;;;0.20;0.20;;;10.20;99.90;;;;;;4950443;29;20190;-94
2022/11/07 04:57:12;;;;;;;0.20;0.20;;;10.20;99.90;;;;;;4950619;29;20237;-90
2022/11/07 04:59:37;;;;;;;0.20;0.20;;;10.20;99.90;;;;;;4951554;28;20198;-95
2022/11/07 05:02:03;;;;;;;0.20;0.20;;;10.20;99.90;;;;;;4973901;28;20202;-93
2022/11/07 05:04:28;;;;;;;0.20;0.20;;;10.20;99.90;;;;;;4950967;28;20212;-92
2022/11/07 05:06:54;;;;;;;0.20;0.20;;;10.20;99.90;;;;;;4953714;28;20194;-91
2022/11/07 05:09:19;;;;;;;0.20;0.20;;;10.20;99.90;;;;;;4958076;28;20217;-93
2022/11/07 05:11:46;;;;;;;0.20;0.20;;;10.20;99.90;;;;;;4959382;28;20187;-94
2022/11/07 05:14:12;;;;;;;0.20;0.20;;;10.20;99.90;;;;;;4954549;28;20194;-89
2022/11/07 05:16:41;;;;;;;0.20;0.20;;;10.30;99.90;;;;;;4949564;28;20485;-93
2022/11/07 05:19:06;;;;;;;0.20;0.20;;;10.30;99.90;;;;;;4955606;28;20461;-94
2022/11/07 05:21:32;;;;;;;0.20;0.20;;;10.30;99.90;;;;;;4953680;28;20455;-94
2022/11/07 05:23:57;;;;;;;0.20;0.20;;;10.30;99.90;;;;;;4952368;29;20187;-94
2022/11/07 05:26:23;;;;;;;0.20;0.20;;;10.20;99.90;;;;;;4945290;29;20749;-94
2022/11/07 05:28:48;;;;;;;0.20;0.20;;;10.20;99.90;;;;;;4948009;29;20199;-94
2022/11/07 05:31:15;;;;;;;0.20;0.20;;;10.20;99.90;;;;;;4941216;28;20187;-94
2022/11/07 05:33:41;;;;;;;0.20;0.20;;;10.10;99.90;;;;;;4948889;28;20209;-94
2022/11/07 05:36:09;;;;;;;0.20;0.20;;;10.20;99.90;;;;;;4947723;28;20454;-94
2022/11/07 05:38:34;;;;;;;0.20;0.20;;;10.20;99.90;;;;;;4951330;28;20238;-91
2022/11/07 05:41:03;;;;;;;0.20;0.20;;;10.20;99.90;;;;;;4950760;28;20430;-92
2022/11/07 05:43:28;;;;;;;0.20;0.20;;;10.10;99.90;;;;;;4955589;28;20197;-94
2022/11/07 05:46:00;;;;;;;0.20;0.20;;;10.20;99.90;;;;;;4952460;28;20608;-92
2022/11/07 05:48:29;;;;;;;0.20;0.20;;;10.20;99.90;;;;;;4956316;28;20211;-92
2022/11/07 05:50:56;;;;;;;0.20;0.20;;;10.20;99.90;;;;;;4949094;28;20450;-93
2022/11/07 05:53:24;;;;;;;0.20;0.20;;;10.10;99.90;;;;;;4955967;28;20481;-94
2022/11/07 05:55:50;;;;;;;0.20;0.20;;;10.20;99.90;;;;;;4977503;28;20537;-92
2022/11/07 05:58:15;;;;;;;0.20;0.20;;;10.20;99.90;;;;;;4945303;28;20482;-94
2022/11/07 06:00:44;;;;;;;0.20;0.20;;;10.20;99.90;;;;;;4946694;28;20996;-93
2022/11/07 06:03:09;;;;;;;0.20;0.20;;;10.20;99.90;;;;;;4949628;28;20349;-94
2022/11/07 06:05:39;;;;;;;0.20;0.20;;;10.20;99.90;;;;;;4945489;28;20538;-93
2022/11/07 06:08:06;;;;;;;0.20;0.20;;;10.20;99.90;;;;;;5000260;28;20332;-94
2022/11/07 06:10:32;;;;;;;0.20;0.20;;;10.30;99.90;;;;;;4950415;29;20450;-94
2022/11/07 06:12:59;;;;;;;0.20;0.20;;;10.20;99.90;;;;;;4950830;29;20458;-92
2022/11/07 06:15:27;;;;;;;0.20;0.20;;;10.20;99.90;;;;;;4950785;28;20190;-90
2022/11/07 06:17:52;;;;;;;0.20;0.20;;;10.20;99.90;;;;;;4944195;28;20493;-89
2022/11/07 06:20:18;;;;;;;0.20;0.20;;;10.20;99.90;;;;;;4953447;28;20453;-93
2022/11/07 06:22:43;;;;;;;0.20;0.20;;;10.30;99.90;;;;;;4953816;29;20203;-93
2022/11/07 06:25:09;;;;;;;0.20;0.20;;;10.30;99.90;;;;;;4955035;28;20190;-93
2022/11/07 06:27:34;;;;;;;0.20;0.20;;;10.30;99.90;;;;;;4955577;29;20194;-91
2022/11/07 06:29:59;;;;;;;0.20;0.20;;;10.30;99.90;;;;;;4959145;28;20206;-94
2022/11/07 06:32:26;;;;;;;0.20;0.20;;;10.30;99.90;;;;;;4957398;28;20190;-93
2022/11/07 06:34:52;;;;;;;0.20;0.20;;;10.30;99.90;;;;;;4954525;28;20183;-90
2022/11/07 06:37:17;;;;;;;0.20;0.20;;;10.40;99.90;;;;;;4949480;28;21325;-91
2022/11/07 06:39:43;;;;;;;0.20;0.20;;;10.40;99.90;;;;;;4944429;28;20716;-93
2022/11/07 06:42:09;;;;;;;0.20;0.20;;;10.40;99.90;;;;;;4955645;29;20247;-94
2022/11/07 06:44:35;;;;;;;0.20;0.20;;;10.40;99.90;;;;;;4954871;28;20194;-94
2022/11/07 06:47:00;;;;;;;0.20;0.20;;;10.40;99.90;;;;;;4954065;28;20450;-95
2022/11/07 06:49:26;;;;;;;0.20;0.20;;;10.50;99.90;;;;;;4949491;29;20247;-89
2022/11/07 06:51:51;;;;;;;0.20;0.20;;;10.50;99.90;;;;;;4951487;28;20191;-91
2022/11/07 06:54:17;;;;;;;0.20;0.20;;;10.60;99.90;;;;;;4954412;28;20196;-95
2022/11/07 06:56:42;;;;;;;0.20;0.20;;;10.50;99.90;;;;;;4955199;28;20222;-89
2022/11/07 06:59:08;;;;;;;0.20;0.20;;;10.50;99.90;;;;;;4961370;28;20195;-94
2022/11/07 07:01:34;;;;;;;0.20;0.20;;;10.50;99.90;;;;;;4958766;28;20274;-94
2022/11/07 07:03:59;;;;;;;0.20;0.20;;;10.60;99.90;;;;;;4959155;28;20647;-91
2022/11/07 07:06:25;;;;;;;0.20;0.20;;;10.60;99.90;;;;;;4962302;28;20189;-90
2022/11/07 07:08:50;;;;;;;0.20;0.20;;;10.60;99.90;;;;;;4958703;28;20210;-94
2022/11/07 07:11:17;;;;;;;0.20;0.20;;;10.60;99.90;;;;;;4957801;28;20210;-95
2022/11/07 07:13:42;;;;;;;0.20;0.20;;;10.50;99.90;;;;;;4946395;29;20230;-93
2022/11/07 07:16:08;;;;;;;0.20;0.20;;;10.50;99.90;;;;;;4951342;28;20457;-95
2022/11/07 07:18:34;;;;;;;0.20;0.20;;;10.60;99.90;;;;;;4956285;28;20226;-94
2022/11/07 07:21:08;;;;;;;0.20;0.20;;;10.60;99.90;;;;;;4954005;28;21094;-94
2022/11/07 07:23:34;;;;;;;0.20;0.20;;;10.60;99.90;;;;;;4955708;28;20541;-89
2022/11/07 07:26:08;;;;;;;0.20;0.20;;;10.70;99.90;;;;;;4955137;29;20513;-93
2022/11/07 07:28:36;;;;;;;0.20;0.20;;;10.70;99.90;;;;;;4954743;28;20442;-94
2022/11/07 07:31:19;;;;;;;0.20;0.20;;;10.80;99.90;;;;;;4958628;28;20450;-95
2022/11/07 07:33:46;;;;;;;0.20;0.20;;;10.70;99.90;;;;;;4958173;28;20968;-89
2022/11/07 07:36:12;;;;;;;0.20;0.20;;;10.80;99.90;;;;;;4956334;28;20449;-94
2022/11/07 07:38:38;;;;;;;0.20;0.20;;;10.90;99.90;;;;;;4956126;28;20500;-92
2022/11/07 07:41:04;;;;;;;0.20;0.20;;;10.90;99.90;;;;;;4949786;29;20466;-89
2022/11/07 07:43:30;;;;;;;0.20;0.20;;;10.90;99.90;;;;;;4947906;29;20458;-92
2022/11/07 07:46:00;;;;;;;0.20;0.20;;;10.90;99.90;;;;;;4951429;28;20442;-92
2022/11/07 07:48:26;;;;;;;0.20;0.20;;;11.00;99.90;;;;;;4951414;28;20199;-92
2022/11/07 07:50:52;;;;;;;0.20;0.20;;;11.00;99.90;;;;;;4953428;29;20435;-91
2022/11/07 07:53:18;;;;;;;0.20;0.20;;;11.00;99.90;;;;;;4957523;28;20438;-93
2022/11/07 07:55:43;;;;;;;0.20;0.20;;;11.00;99.90;;;;;;4945307;28;20659;-91
2022/11/07 07:58:10;;;;;;;0.20;0.20;;;11.00;99.90;;;;;;4958109;28;20218;-95
2022/11/07 08:00:35;;;;;;;0.20;0.20;;;11.00;99.90;;;;;;4949806;29;20202;-92
2022/11/07 08:03:03;;;;;;;0.20;0.20;;;11.00;99.90;;;;;;4946322;28;20455;-93
2022/11/07 08:05:29;;;;;;;0.20;0.20;;;11.00;99.90;;;;;;4946643;28;20191;-89
2022/11/07 08:07:54;;;;;;;0.20;0.20;;;11.10;99.90;;;;;;4951020;28;20871;-89
2022/11/07 08:10:20;;;;;;;0.20;0.20;;;11.10;99.90;;;;;;4961475;28;20194;-88
2022/11/07 08:12:47;;;;;;;0.20;0.20;;;11.20;99.90;;;;;;4950979;28;20309;-86
2022/11/07 08:15:13;;;;;;;0.20;0.20;;;11.20;99.90;;;;;;4950833;28;20694;-94
2022/11/07 08:17:40;;;;;;;0.20;0.20;;;11.20;99.90;;;;;;5018336;28;20470;-93
2022/11/07 08:20:10;;;;;;;0.20;0.20;;;11.30;99.90;;;;;;4933947;28;20478;-93
2022/11/07 08:22:36;;;;;;;0.20;0.20;;;11.30;99.90;;;;;;4934015;28;20458;-91
2022/11/07 08:25:02;;;;;;;0.20;0.20;;;11.30;99.90;;;;;;4953160;29;20478;-94
2022/11/07 08:27:28;;;;;;;0.20;0.20;;;11.30;99.90;;;;;;4948584;28;21005;-95
2022/11/07 08:29:53;;;;;;;0.20;0.20;;;11.40;99.90;;;;;;4950160;29;20442;-92
2022/11/07 08:32:19;;;;;;;0.20;0.20;;;11.60;99.90;;;;;;4953332;28;20202;-89
2022/11/07 08:34:44;;;;;;;0.20;0.20;;;11.70;99.90;;;;;;4990382;28;20187;-90
2022/11/07 08:37:10;;;;;;;0.20;0.20;;;11.60;99.90;;;;;;4949694;28;20222;-91
2022/11/07 08:39:35;;;;;;;0.20;0.20;;;11.60;99.90;;;;;;4942648;28;20487;-89
2022/11/07 08:42:01;;;;;;;0.10;0.10;;;11.60;99.90;;;;;;4942601;28;20240;-94
2022/11/07 08:44:26;;;;;;;0.20;0.20;;;11.50;99.90;;;;;;4952767;29;20195;-90
2022/11/07 08:46:52;;;;;;;0.10;0.10;;;11.50;99.90;;;;;;4937340;28;20822;-86
2022/11/07 08:49:17;;;;;;;0.10;0.10;;;11.50;99.90;;;;;;4951160;28;20195;-85
2022/11/07 08:51:43;;;;;;;0.13;0.13;;;11.50;99.90;;;;;;4962341;28;20201;-82
2022/11/07 08:54:10;;;;;;;0.20;0.20;;;11.50;99.90;;;;;;4958930;28;20190;-89
2022/11/07 08:56:36;;;;;;;0.20;0.20;;;11.60;99.90;;;;;;4953286;28;20229;-85
2022/11/07 08:59:01;;;;;;;0.20;0.20;;;11.60;99.90;;;;;;4952809;28;20467;-86
2022/11/07 09:01:27;;;;;;;0.20;0.20;;;11.60;99.90;;;;;;4941661;28;20190;-90
2022/11/07 09:03:52;;;;;;;0.20;0.20;;;11.60;99.90;;;;;;4962054;28;20281;-89
2022/11/07 09:06:18;;;;;;;0.20;0.20;;;11.60;99.90;;;;;;4958538;28;20274;-92
2022/11/07 09:08:44;;;;;;;0.20;0.20;;;11.60;99.90;;;;;;4953232;28;20206;-86
2022/11/07 09:11:11;;;;;;;0.20;0.20;;;11.60;99.90;;;;;;4948977;28;20201;-90
2022/11/07 09:13:36;;;;;;;0.20;0.20;;;11.60;99.90;;;;;;4949840;28;20966;-91
2022/11/07 09:16:03;;;;;;;0.20;0.20;;;11.70;99.90;;;;;;4944284;29;20458;-88
2022/11/07 09:18:29;;;;;;;0.20;0.20;;;11.70;99.90;;;;;;4946830;29;20226;-95
2022/11/07 09:20:57;;;;;;;0.20;0.20;;;11.80;99.90;;;;;;4949715;28;20460;-87
2022/11/07 09:23:22;;;;;;;0.20;0.20;;;11.80;99.90;;;;;;4947300;28;20934;-93
2022/11/07 09:25:48;;;;;;;0.20;0.20;;;12.00;99.90;;;;;;4953995;28;20528;-93
2022/11/07 09:28:14;;;;;;;0.10;0.10;;;12.10;99.90;;;;;;4949630;28;20203;-88
2022/11/07 09:30:40;;;;;;;0.20;0.20;;;12.40;99.90;;;;;;4948401;28;20189;-89
2022/11/07 09:33:06;;;;;;;0.20;0.20;;;12.40;99.90;;;;;;4947605;28;21332;-91
2022/11/07 09:35:31;;;;;;;0.20;0.20;;;12.40;99.90;;;;;;4949486;29;20190;-89
2022/11/07 09:37:57;;;;;;;0.10;0.10;;;12.50;99.90;;;;;;4951200;28;20238;-87
2022/11/07 09:40:51;;;;;;;0.10;0.10;;;12.50;99.90;;;;;;4950170;28;20179;-90
2022/11/07 09:43:33;;;;;;;0.20;0.20;;;12.50;99.90;;;;;;4949608;28;20674;-88
2022/11/07 09:46:36;;;;;;;0.20;0.20;;;12.80;99.90;;;;;;4951461;29;20418;-91
2022/11/07 09:49:27;;;;;;;0.10;0.10;;;13.00;99.90;;;;;;4932353;28;20435;-88
2022/11/07 09:51:58;;;;;;;0.10;0.10;;;12.90;99.90;;;;;;4939149;29;20954;-89
2022/11/07 09:54:30;;;;;;;0.20;0.20;;;12.80;99.90;;;;;;4949216;28;20996;-89
2022/11/07 09:56:58;;;;;;;0.20;0.20;;;12.90;99.90;;;;;;4951915;28;20470;-90
2022/11/07 09:59:35;;;;;;;0.20;0.20;;;12.80;99.90;;;;;;4948437;28;20458;-89
2022/11/07 10:02:02;;;;;;;0.20;0.20;;;12.90;99.90;;;;;;4948134;28;20453;-88
2022/11/07 10:04:27;;;;;;;0.10;0.10;;;13.10;99.90;;;;;;4942018;28;20497;-89
2022/11/07 10:07:03;;;;;;;0.20;0.20;;;12.90;99.90;;;;;;4947088;28;20478;-87
2022/11/07 10:09:35;;;;;;;0.20;0.20;;;13.30;99.90;;;;;;4952323;28;20192;-88
2022/11/07 10:12:25;;;;;;;0.20;0.20;;;12.90;99.90;;;;;;4954799;28;20461;-93
2022/11/07 10:14:59;;;;;;;0.20;0.20;;;12.90;99.90;;;;;;4955141;28;20438;-93
2022/11/07 10:17:58;;;;;;;0.10;0.10;;;13.00;99.90;;;;;;4970192;28;20481;-91
2022/11/07 10:20:30;;;;;;;0.20;0.20;;;13.00;99.90;;;;;;4945160;29;20534;-95
2022/11/07 10:23:18;;;;;;;0.10;0.10;;;13.10;99.90;;;;;;4937949;29;20494;-90
2022/11/07 10:25:56;;;;;;;0.20;0.20;;;13.30;99.90;;;;;;4960869;28;20533;-93
2022/11/07 10:28:26;;;;;;;0.10;0.10;;;13.30;99.90;;;;;;4933106;29;20532;-94
2022/11/07 10:30:54;;;;;;;0.10;0.10;;;13.40;99.90;;;;;;4937186;29;20443;-91
2022/11/07 10:33:41;;;;;;;0.10;0.10;;;13.80;99.90;;;;;;4949471;29;20489;-90
2022/11/07 10:36:29;;;;;;;0.20;0.20;;;13.80;99.90;;;;;;4975716;28;20452;-92
2022/11/07 10:38:54;;;;;;;0.20;0.20;;;13.70;99.90;;;;;;4989855;28;20478;-92
2022/11/07 10:41:22;;;;;;;0.10;0.10;;;13.80;99.90;;;;;;4947804;28;20950;-92
2022/11/07 10:44:10;;;;;;;0.10;0.10;;;13.50;99.90;;;;;;4949981;28;20202;-89
2022/11/07 10:46:44;;;;;;;0.10;0.10;;;13.30;99.90;;;;;;4946094;28;20466;-87
2022/11/07 10:49:38;;;;;;;0.10;0.10;;;13.10;99.90;;;;;;4944857;29;20457;-90
2022/11/07 10:52:15;;;;;;;0.10;0.10;;;13.00;99.90;;;;;;4943495;29;20469;-87
2022/11/07 10:54:42;;;;;;;0.10;0.10;;;12.90;99.90;;;;;;4993350;28;20450;-86
2022/11/07 10:57:19;;;;;;;0.10;0.10;;;12.90;99.90;;;;;;4936382;28;21074;-91
2022/11/07 10:59:57;;;;;;;0.20;0.20;;;13.00;99.90;;;;;;4942687;28;20457;-92
2022/11/07 11:02:42;;;;;;;0.10;0.10;;;13.00;99.90;;;;;;4994225;28;20468;-88
2022/11/07 11:05:20;;;;;;;0.10;0.10;;;13.00;99.90;;;;;;4955367;28;20512;-88
2022/11/07 11:07:45;;;;;;;0.20;0.20;;;12.90;99.90;;;;;;4941419;28;20473;-89
2022/11/07 11:10:21;;;;;;;0.10;0.10;;;12.80;99.90;;;;;;4955588;28;20478;-90
2022/11/07 11:12:48;;;;;;;0.10;0.10;;;12.80;99.90;;;;;;4950499;28;20374;-91
2022/11/07 11:15:22;;;;;;;0.20;0.20;;;13.00;99.90;;;;;;4942145;28;20536;-93
2022/11/07 11:18:06;;;;;;;0.20;0.20;;;13.00;99.90;;;;;;4954377;28;20551;-90
2022/11/07 11:20:39;;;;;;;0.13;0.13;;;13.00;99.90;;;;;;4950280;28;20524;-87
2022/11/07 11:23:14;;;;;;;0.20;0.20;;;12.90;99.90;;;;;;4941802;28;20485;-90
2022/11/07 11:25:49;;;;;;;0.10;0.10;;;12.90;99.90;;;;;;4952818;28;20512;-88
2022/11/07 11:28:33;;;;;;;0.10;0.10;;;12.80;99.90;;;;;;4950469;29;20461;-88
2022/11/07 11:31:08;;;;;;;0.20;0.20;;;12.90;99.90;;;;;;4949469;28;20461;-87
2022/11/07 11:33:41;;;;;;;0.10;0.10;;;13.10;99.90;;;;;;4946859;28;20545;-86
2022/11/07 11:36:18;;;;;;;0.10;0.10;;;13.10;99.90;;;;;;4951748;28;20454;-86
2022/11/07 11:38:53;;;;;;;0.10;0.10;;;13.10;99.90;;;;;;4957649;28;20485;-89
2022/11/07 11:41:46;;;;;;;0.10;0.10;;;13.00;99.90;;;;;;4943226;28;20450;-90
2022/11/07 11:44:37;;;;;;;0.10;0.10;;;13.20;99.90;;;;;;4949464;29;20454;-89
2022/11/07 11:47:26;;;;;;;0.10;0.10;;;13.20;99.90;;;;;;4946258;28;20865;-87
2022/11/07 11:49:58;;;;;;;0.10;0.10;;;13.20;99.90;;;;;;4948911;29;20810;-85
2022/11/07 11:52:24;;;;;;;0.10;0.10;;;13.10;99.90;;;;;;4948092;29;21174;-89
2022/11/07 11:54:51;;;;;;;0.13;0.13;;;13.00;99.90;;;;;;4952583;28;20446;-86
2022/11/07 11:57:25;;;;;;;0.20;0.20;;;12.90;99.90;;;;;;4944978;28;20498;-86
2022/11/07 12:00:10;;;;;;;0.10;0.10;;;12.90;99.90;;;;;;4950432;28;20525;-87
2022/11/07 12:03:20;;;;;;;0.20;0.20;;;12.90;99.90;;;;;;4954624;28;20461;-88
2022/11/07 12:06:06;;;;;;;0.20;0.20;;;12.90;99.90;;;;;;4952994;28;20462;-89
2022/11/07 12:08:59;;;;;;;0.10;0.10;;;12.90;99.90;;;;;;4948333;28;21094;-85
2022/11/07 12:11:27;;;;;;;0.10;0.10;;;13.00;99.90;;;;;;4946146;28;20478;-87
2022/11/07 12:14:26;;;;;;;0.20;0.20;;;13.00;99.90;;;;;;4948357;28;20453;-89
2022/11/07 12:16:57;;;;;;;0.10;0.10;;;13.10;99.90;;;;;;4947698;28;20443;-95
2022/11/07 12:19:31;;;;;;;0.20;0.20;;;13.00;99.90;;;;;;4967805;28;20489;-93
2022/11/07 12:22:28;;;;;;;0.10;0.10;;;13.00;99.90;;;;;;4941375;28;21301;-89
2022/11/07 12:25:16;;;;;;;0.10;0.10;;;13.00;99.90;;;;;;4948339;28;20925;-87
2022/11/07 12:27:56;;;;;;;0.10;0.10;;;12.90;99.90;;;;;;4949501;28;20512;-87
2022/11/07 12:30:34;;;;;;;0.20;0.20;;;12.90;99.90;;;;;;4948085;28;20504;-85
2022/11/07 12:33:17;;;;;;;0.20;0.20;;;12.90;99.90;;;;;;4957712;28;20533;-86
2022/11/07 12:35:51;;;;;;;0.10;0.10;;;12.90;99.90;;;;;;4951103;28;21021;-85
2022/11/07 12:38:49;;;;;;;0.10;0.10;;;13.00;99.90;;;;;;4994370;28;20643;-84
2022/11/07 12:41:33;;;;;;;0.10;0.10;;;13.10;99.90;;;;;;4943219;28;20947;-85
2022/11/07 12:44:11;;;;;;;0.20;0.20;;;13.10;99.90;;;;;;4946633;28;20447;-85
2022/11/07 12:46:52;;;;;;;0.20;0.20;;;13.10;99.90;;;;;;4947962;28;20992;-85
2022/11/07 12:49:45;;;;;;;0.10;0.10;;;13.10;99.90;;;;;;4947252;28;20442;-84
2022/11/07 12:52:39;;;;;;;0.10;0.10;;;13.00;99.90;;;;;;4945851;28;20454;-84
2022/11/07 12:55:26;;;;;;;0.10;0.10;;;13.00;99.90;;;;;;4947431;28;20449;-85
2022/11/07 12:57:53;;;;;;;0.10;0.10;;;12.90;99.90;;;;;;4934863;29;20572;-85
2022/11/07 13:00:23;;;;;;;0.10;0.10;;;12.90;99.90;;;;;;4949149;28;20885;-86
2022/11/07 13:03:09;;;;;;;0.20;0.20;;;12.90;99.90;;;;;;4951594;28;20462;-85
2022/11/07 13:06:03;;;;;;;0.10;0.10;;;12.80;99.90;;;;;;4940955;28;20506;-87
2022/11/07 13:08:44;;;;;;;0.17;0.17;;;12.80;99.90;;;;;;4937960;28;21113;-86
2022/11/07 13:11:37;;;;;;;0.10;0.10;;;12.80;99.90;;;;;;4947871;28;20970;-86